Funkstown, MD (21734)

1:54 PM EST on March 04, 2015 (GMT -0500)
Hagerstown 1E - Pangborn Blvd. | Change Station
CLOSE
Current Station
Personal Weather Station
Location: Hagerstown, MD
Elevation: 537 ft
Nearby Weather Stations
Active Advisory: Winter Storm Warning

Elev 537 ft 39.64 °N, 77.70 °W | Updated 3 minutes ago

Overcast
Overcast
49.1 °F
Feels Like 49 °F
N
0.0
Wind Variable Wind from South
Gusts 0.0 mph

Today
High -- | Low -- °F
--% Chance of Precip.
Yesterday
High -- | Low -- °F
Precip. -- in
6:39 AM 6:05 PM
Waxing Gibbous, 99% visible
Pressure 29.88 in
Visibility 10.0 miles
Clouds Overcast 10000 ft
Windchill 49 °F
Dew Point 43 °F
Humidity 79%
Rainfall 0.05 in
Snow Depth Not available.
UV 2 out of 12
Pollen .70 out of 12
Air Quality Not available.
Flu Activity Not available.
METAR KHGR 041753Z 22003KT 10SM OVC100 10/06 A2984 RMK AO2 SLP119 60001 T01000056 10106 20022 56014

More Conditions Fewer Conditions

Pressure 29.88 in
Visibility 10.0 miles
Clouds Overcast 10000 ft
Windchill 49 °F
Dew Point 43 °F
Humidity 79%
Rainfall 0.05 in
Snow Depth Not available.
UV 2 out of 12
Pollen .70 out of 12
Air Quality Not available.
Flu Activity Not available.
METAR KHGR 041753Z 22003KT 10SM OVC100 10/06 A2984 RMK AO2 SLP119 60001 T01000056 10106 20022 56014

More Conditions Fewer Conditions

10-Day Weather Forecast

Almanac

Astronomy

Mar. 04, 2015 Rise Set
Actual Time
Civil Twilight
Nautical Twilight
Astronomical Twilight
Moon
Length of Visible Light
Length of Day
Tomorrow will be .
, % of the Moon is Illuminated

Today's Extremes

State Highs State Lows

Community

WunderPhotos

Upload Photos

1,802,536 photos uploaded!

WunderBlogs® & News

Nearby

Air Quality

  Air Quality AQ Index Pollutant
Not available.

Snow Depth

Station Depth Elevation

Earthquake Activity

City Distance Mag. Time & Date
Minimum magnitude displayed is 2.5.

Coastal Water Temperatures

Place Temperature

Nearby Weather Stations

Winter Storm Warning
Statement as of 1:31 PM EST on March 04, 2015

... Winter Storm Warning remains in effect from 7 PM this evening
to 7 PM EST Thursday...

* precipitation types... wintry mix this evening... then snow...
heavy at times.

* Accumulations... snow accumulation of 6 to 10 inches.

* Timing... rain changes to wintry mix this evening then all snow
overnight through Thursday. Snow heaviest late tonight through
midday Thursday.

* Temperatures... in the lower 30s... dropping into the lower 20s.

* Winds... northwest 10 to 15 mph.

* Impacts... roads will be snow covered with visibility reduced
to one- quarter mile at times. Traveling will be dangerous.

Precautionary/preparedness actions...

A Winter Storm Warning for heavy snow means severe winter weather
conditions are expected or occurring. Significant amounts of snow
are forecast that will make travel dangerous. Only travel in an
emergency. If you must travel... keep an extra flashlight...
food... and water in your vehicle in case of an emergency.